createdAt,value
2017-10-19T00:01:02.197Z,5.43
2017-10-19T00:03:35.393Z,6.60
2017-10-19T00:06:08.319Z,5.97
2017-10-19T00:08:41.228Z,6.57
2017-10-19T00:11:13.655Z,7.07
2017-10-19T00:13:46.553Z,6.17
2017-10-19T00:16:19.257Z,5.17
2017-10-19T00:18:51.867Z,5.00
2017-10-19T00:21:25.500Z,6.13
2017-10-19T00:23:58.521Z,6.67
2017-10-19T00:26:31.033Z,5.80
2017-10-19T00:29:04.502Z,5.67
2017-10-19T00:31:37.886Z,6.00
2017-10-19T00:34:10.297Z,5.60
2017-10-19T00:36:43.032Z,5.27
2017-10-19T00:39:16.441Z,5.70
2017-10-19T00:41:49.188Z,6.93
2017-10-19T00:44:21.663Z,5.40
2017-10-19T00:46:54.402Z,5.47
2017-10-19T00:49:26.831Z,5.83
2017-10-19T00:51:59.334Z,5.03
2017-10-19T00:54:32.723Z,5.73
2017-10-19T00:57:06.103Z,4.60
2017-10-19T00:59:38.603Z,5.53
2017-10-19T01:02:11.191Z,6.93
2017-10-19T01:04:44.615Z,5.70
2017-10-19T01:07:17.320Z,5.43
2017-10-19T01:09:49.980Z,5.00
2017-10-19T01:12:23.698Z,4.60
2017-10-19T01:14:56.573Z,4.43
2017-10-19T01:17:29.168Z,5.30
2017-10-19T01:20:01.901Z,5.30
2017-10-19T01:22:34.611Z,4.83
2017-10-19T01:25:07.114Z,5.63
2017-10-19T01:27:40.695Z,4.97
2017-10-19T01:30:13.574Z,4.23
2017-10-19T01:32:46.410Z,5.00
2017-10-19T01:35:19.112Z,5.10
2017-10-19T01:37:51.849Z,5.47
2017-10-19T01:40:24.341Z,4.93
2017-10-19T01:42:57.182Z,5.43
2017-10-19T01:45:29.857Z,4.33
2017-10-19T01:48:02.597Z,6.00
2017-10-19T01:50:35.049Z,4.43
2017-10-19T01:53:07.675Z,6.07
2017-10-19T01:55:40.274Z,4.70
2017-10-19T01:58:13.617Z,5.07
2017-10-19T02:00:46.896Z,5.10
2017-10-19T02:03:19.721Z,4.97
2017-10-19T02:05:52.341Z,5.30
2017-10-19T02:08:25.238Z,4.10
2017-10-19T02:10:59.328Z,4.37
2017-10-19T02:13:32.055Z,5.57
2017-10-19T02:16:04.619Z,4.83
2017-10-19T02:18:38.052Z,4.50
2017-10-19T02:21:10.581Z,4.50
2017-10-19T02:23:43.338Z,5.73
2017-10-19T02:26:16.062Z,4.70
2017-10-19T02:28:49.492Z,4.90
2017-10-19T02:31:22.507Z,5.37
2017-10-19T02:33:55.266Z,5.00
2017-10-19T02:36:27.974Z,4.53
2017-10-19T02:39:00.867Z,4.50
2017-10-19T02:41:33.421Z,4.27
2017-10-19T02:44:06.327Z,4.90
2017-10-19T02:46:38.936Z,4.63
2017-10-19T02:49:12.559Z,3.77
2017-10-19T02:51:46.409Z,5.03
2017-10-19T02:54:19.999Z,4.90
2017-10-19T02:56:52.827Z,4.70
2017-10-19T02:59:25.543Z,4.53
2017-10-19T03:01:58.833Z,5.90
2017-10-19T03:04:31.619Z,5.70
2017-10-19T03:07:05.040Z,4.23
2017-10-19T03:09:37.648Z,4.40
2017-10-19T03:12:10.071Z,4.50
2017-10-19T03:14:42.558Z,4.60
2017-10-19T03:17:15.948Z,5.20
2017-10-19T03:19:48.526Z,4.97
2017-10-19T03:22:21.087Z,4.27
2017-10-19T03:24:54.260Z,4.00
2017-10-19T03:27:27.169Z,4.77
2017-10-19T03:29:59.711Z,4.50
2017-10-19T03:32:33.124Z,3.70
2017-10-19T03:35:06.623Z,4.37
2017-10-19T03:37:39.574Z,4.60
2017-10-19T03:40:12.424Z,3.50
2017-10-19T03:42:44.945Z,4.33
2017-10-19T03:45:18.466Z,4.43
2017-10-19T03:47:51.404Z,3.77
2017-10-19T03:50:24.437Z,3.53
2017-10-19T03:52:57.737Z,3.77
2017-10-19T03:55:30.601Z,3.67
2017-10-19T03:58:03.017Z,4.13
2017-10-19T04:00:35.604Z,3.20
2017-10-19T04:03:08.299Z,3.60
2017-10-19T04:05:41.055Z,3.80
2017-10-19T04:08:14.430Z,3.30
2017-10-19T04:10:47.319Z,3.70
2017-10-19T04:13:19.818Z,3.80
2017-10-19T04:15:53.154Z,3.97
2017-10-19T04:18:25.837Z,3.20
2017-10-19T04:20:58.449Z,3.70
2017-10-19T04:23:31.885Z,3.30
2017-10-19T04:26:05.255Z,3.63
2017-10-19T04:28:37.693Z,4.03
2017-10-19T04:31:10.429Z,4.10
2017-10-19T04:33:43.839Z,2.80
2017-10-19T04:36:17.096Z,2.70
2017-10-19T04:38:49.861Z,3.87
2017-10-19T04:41:22.395Z,3.83
2017-10-19T04:43:55.044Z,2.70
2017-10-19T04:46:28.637Z,3.10
2017-10-19T04:49:02.225Z,3.33
2017-10-19T04:51:35.446Z,3.83
2017-10-19T04:54:07.977Z,2.80
2017-10-19T04:56:40.843Z,4.60
2017-10-19T04:59:13.321Z,3.40
2017-10-19T05:01:46.050Z,3.53
2017-10-19T05:04:18.861Z,4.37
2017-10-19T05:06:51.713Z,3.30
2017-10-19T05:09:24.737Z,2.67
2017-10-19T05:11:57.459Z,3.30
2017-10-19T05:14:30.033Z,3.57
2017-10-19T05:17:02.608Z,4.10
2017-10-19T05:19:35.495Z,3.80
2017-10-19T05:22:07.985Z,2.70
2017-10-19T05:24:40.618Z,4.00
2017-10-19T05:27:13.021Z,2.87
2017-10-19T05:29:45.523Z,3.00
2017-10-19T05:32:18.820Z,3.73
2017-10-19T05:34:51.280Z,3.40
2017-10-19T05:37:23.863Z,3.03
2017-10-19T05:39:57.987Z,3.23
2017-10-19T05:42:30.772Z,3.40
2017-10-19T05:45:03.313Z,3.33
2017-10-19T05:47:36.703Z,3.13
2017-10-19T05:50:09.445Z,3.20
2017-10-19T05:52:42.166Z,3.10
2017-10-19T05:55:22.276Z,2.67
2017-10-19T05:57:55.720Z,3.70
2017-10-19T06:00:28.977Z,2.90
2017-10-19T06:03:02.721Z,4.30
2017-10-19T06:05:35.458Z,2.80
2017-10-19T06:08:07.994Z,4.00
2017-10-19T06:10:41.508Z,3.40
2017-10-19T06:13:14.631Z,3.80
2017-10-19T06:15:47.337Z,3.67
2017-10-19T06:18:21.034Z,3.40
2017-10-19T06:20:53.980Z,4.07
2017-10-19T06:23:26.582Z,3.40
2017-10-19T06:25:59.202Z,3.33
2017-10-19T06:28:31.845Z,4.30
2017-10-19T06:31:04.702Z,3.70
2017-10-19T06:33:37.920Z,4.30
2017-10-19T06:36:10.686Z,2.80
2017-10-19T06:38:43.249Z,4.57
2017-10-19T06:41:15.729Z,3.17
2017-10-19T06:43:48.279Z,4.30
2017-10-19T06:46:20.637Z,3.77
2017-10-19T06:48:54.064Z,3.53
2017-10-19T06:51:27.350Z,3.77
2017-10-19T06:54:00.588Z,3.90
2017-10-19T06:56:33.128Z,2.67
2017-10-19T06:59:05.662Z,3.27
2017-10-19T07:01:38.330Z,3.30
2017-10-19T07:04:10.965Z,4.40
2017-10-19T07:06:43.626Z,3.80
2017-10-19T07:09:16.415Z,3.67
2017-10-19T07:11:49.055Z,2.90
2017-10-19T07:14:21.662Z,3.77
2017-10-19T07:16:55.284Z,3.07
2017-10-19T07:19:28.405Z,3.00
2017-10-19T07:22:01.534Z,4.30
2017-10-19T07:24:34.352Z,4.23
2017-10-19T07:27:06.926Z,3.53
2017-10-19T07:29:39.633Z,4.17
2017-10-19T07:32:12.884Z,3.70
2017-10-19T07:34:45.686Z,3.70
2017-10-19T07:37:18.313Z,3.60
2017-10-19T07:39:51.100Z,3.47
2017-10-19T07:42:24.462Z,4.00
2017-10-19T07:44:57.139Z,3.67
2017-10-19T07:47:29.720Z,3.50
2017-10-19T07:50:02.983Z,2.97
2017-10-19T07:52:35.497Z,3.73
2017-10-19T07:55:08.486Z,3.70
2017-10-19T07:57:41.366Z,4.30
2017-10-19T08:00:14.439Z,3.30
2017-10-19T08:02:46.974Z,3.70
2017-10-19T08:05:20.203Z,3.40
2017-10-19T08:07:52.889Z,3.10
2017-10-19T08:10:25.404Z,3.70
2017-10-19T08:12:57.812Z,4.00
2017-10-19T08:15:30.281Z,3.10
2017-10-19T08:18:02.837Z,3.60
2017-10-19T08:20:35.397Z,3.77
2017-10-19T08:23:08.045Z,2.90
2017-10-19T08:25:40.790Z,3.67
2017-10-19T08:28:13.342Z,2.80
2017-10-19T08:30:46.597Z,2.70
2017-10-19T08:33:20.263Z,3.43
2017-10-19T08:35:52.928Z,3.30
2017-10-19T08:38:25.452Z,3.67
2017-10-19T08:40:58.816Z,3.57
2017-10-19T08:43:31.478Z,4.50
2017-10-19T08:46:04.348Z,3.43
2017-10-19T08:48:36.860Z,3.13
2017-10-19T08:51:09.400Z,2.90
2017-10-19T08:53:41.835Z,2.47
2017-10-19T08:56:14.525Z,3.50
2017-10-19T08:58:47.039Z,4.20
2017-10-19T09:01:20.021Z,3.20
2017-10-19T09:03:52.504Z,4.07
2017-10-19T09:06:25.635Z,4.23
2017-10-19T09:08:58.618Z,4.10
2017-10-19T09:11:32.502Z,3.67
2017-10-19T09:14:05.474Z,3.80
2017-10-19T09:16:38.579Z,3.30
2017-10-19T09:19:11.422Z,4.93
2017-10-19T09:21:44.190Z,4.30
2017-10-19T09:24:16.805Z,3.20
2017-10-19T09:26:49.323Z,2.90
2017-10-19T09:29:21.864Z,3.27
2017-10-19T09:31:54.340Z,3.70
2017-10-19T09:34:26.994Z,3.50
2017-10-19T09:36:59.685Z,4.30
2017-10-19T09:39:32.167Z,3.77
2017-10-19T09:42:04.837Z,5.23
2017-10-19T09:44:37.264Z,4.90
2017-10-19T09:47:10.510Z,4.20
2017-10-19T09:49:43.218Z,3.60
2017-10-19T09:52:15.979Z,3.83
2017-10-19T09:54:48.406Z,4.90
2017-10-19T09:57:20.981Z,4.30
2017-10-19T09:59:53.498Z,4.23
2017-10-19T10:02:26.109Z,2.77
2017-10-19T10:04:59.357Z,3.10
2017-10-19T10:07:32.136Z,3.30
2017-10-19T10:10:04.626Z,3.53
2017-10-19T10:12:37.641Z,3.80
2017-10-19T10:15:11.511Z,3.27
2017-10-19T10:17:44.641Z,2.90
2017-10-19T10:20:17.719Z,3.80
2017-10-19T10:22:50.760Z,2.50
2017-10-19T10:25:23.533Z,2.73
2017-10-19T10:27:56.232Z,2.37
2017-10-19T10:30:28.805Z,3.90
2017-10-19T10:33:01.353Z,2.80
2017-10-19T10:35:35.477Z,3.90
2017-10-19T10:38:08.293Z,3.03
2017-10-19T10:40:41.447Z,3.20
2017-10-19T10:43:14.238Z,2.93
2017-10-19T10:45:46.801Z,2.50
2017-10-19T10:48:19.394Z,2.90
2017-10-19T10:50:51.948Z,3.13
2017-10-19T10:53:24.577Z,3.17
2017-10-19T10:55:57.221Z,2.60
2017-10-19T10:58:29.847Z,2.10
2017-10-19T11:01:02.306Z,2.20
2017-10-19T11:03:34.767Z,2.90
2017-10-19T11:06:08.263Z,3.60
2017-10-19T11:08:40.881Z,3.03
2017-10-19T11:11:13.299Z,2.20
2017-10-19T11:13:45.942Z,2.60
2017-10-19T11:16:19.109Z,2.57
2017-10-19T11:18:52.759Z,2.67
2017-10-19T11:21:25.459Z,2.57
2017-10-19T11:23:58.753Z,2.90
2017-10-19T11:26:31.162Z,3.07
2017-10-19T11:29:04.972Z,2.70
2017-10-19T11:31:38.358Z,2.93
2017-10-19T11:34:11.180Z,2.40
2017-10-19T11:36:43.924Z,3.10
2017-10-19T11:39:16.515Z,3.40
2017-10-19T11:41:49.130Z,2.70
2017-10-19T11:44:22.504Z,3.07
2017-10-19T11:46:55.774Z,2.97
2017-10-19T11:49:28.516Z,3.43
2017-10-19T11:52:01.840Z,2.47
2017-10-19T11:54:35.598Z,3.70
2017-10-19T11:57:08.550Z,3.47
2017-10-19T11:59:41.875Z,2.30
2017-10-19T12:02:14.716Z,3.47
2017-10-19T12:04:47.185Z,3.27
2017-10-19T12:07:19.885Z,2.83
2017-10-19T12:09:52.599Z,2.43
2017-10-19T12:12:25.192Z,3.03
2017-10-19T12:14:57.841Z,3.27
2017-10-19T12:17:30.463Z,3.20
2017-10-19T12:20:03.194Z,3.00
2017-10-19T12:22:35.838Z,3.47
2017-10-19T12:25:08.367Z,2.57
2017-10-19T12:27:41.029Z,2.63
2017-10-19T12:30:14.043Z,3.60
2017-10-19T12:32:46.453Z,3.27
2017-10-19T12:35:19.826Z,2.10
2017-10-19T12:37:53.244Z,2.90
2017-10-19T12:40:25.678Z,2.50
2017-10-19T12:42:58.747Z,2.60
2017-10-19T12:45:31.770Z,3.43
2017-10-19T12:48:04.632Z,2.73
2017-10-19T12:50:37.148Z,2.50
2017-10-19T12:53:09.677Z,2.63
2017-10-19T12:55:42.343Z,2.90
2017-10-19T12:58:14.806Z,2.83
2017-10-19T13:00:47.426Z,2.77
2017-10-19T13:03:19.938Z,2.70
2017-10-19T13:05:53.123Z,2.60
2017-10-19T13:08:25.800Z,3.10
2017-10-19T13:10:58.575Z,2.60
2017-10-19T13:13:30.979Z,3.30
2017-10-19T13:16:03.674Z,2.70
2017-10-19T13:18:36.187Z,2.87
2017-10-19T13:21:08.823Z,3.40
2017-10-19T13:23:41.575Z,2.67
2017-10-19T13:26:14.054Z,3.77
2017-10-19T13:28:46.634Z,3.00
2017-10-19T13:31:19.372Z,3.70
2017-10-19T13:33:52.555Z,3.43
2017-10-19T13:36:25.404Z,3.17
2017-10-19T13:38:57.913Z,3.17
2017-10-19T13:41:30.430Z,4.43
2017-10-19T13:44:03.062Z,3.70
2017-10-19T13:46:35.899Z,3.50
2017-10-19T13:49:09.953Z,3.70
2017-10-19T13:51:43.286Z,3.40
2017-10-19T13:54:16.165Z,3.50
2017-10-19T13:56:49.015Z,4.60
2017-10-19T13:59:21.968Z,3.43
2017-10-19T14:01:54.695Z,5.83
2017-10-19T14:04:27.343Z,4.53
2017-10-19T14:07:00.697Z,5.07
2017-10-19T14:09:33.363Z,4.00
2017-10-19T14:12:05.851Z,3.00
2017-10-19T14:14:38.292Z,4.20
2017-10-19T14:17:11.059Z,3.90
2017-10-19T14:19:43.522Z,4.20
2017-10-19T14:22:16.263Z,5.10
2017-10-19T14:24:48.819Z,4.90
2017-10-19T14:27:22.223Z,4.70
2017-10-19T14:29:55.064Z,5.00
2017-10-19T14:32:27.575Z,5.27
2017-10-19T14:35:00.088Z,3.57
2017-10-19T14:37:32.829Z,4.20
2017-10-19T14:40:05.425Z,4.77
2017-10-19T14:42:38.068Z,6.60
2017-10-19T14:45:10.561Z,4.07
2017-10-19T14:47:43.084Z,3.53
2017-10-19T14:50:16.397Z,5.90
2017-10-19T14:52:48.846Z,4.40
2017-10-19T14:55:21.634Z,4.60
2017-10-19T14:57:54.441Z,3.40
2017-10-19T15:00:27.083Z,6.03
2017-10-19T15:03:00.028Z,5.77
2017-10-19T15:05:32.919Z,4.30
2017-10-19T15:08:05.783Z,4.90
2017-10-19T15:10:38.800Z,3.90
2017-10-19T15:13:11.282Z,3.30
2017-10-19T15:15:43.961Z,3.00
2017-10-19T15:18:17.185Z,3.40
2017-10-19T15:20:50.025Z,3.20
2017-10-19T15:23:22.540Z,3.00
2017-10-19T15:25:55.124Z,3.73
2017-10-19T15:28:27.726Z,3.57
2017-10-19T15:31:00.266Z,2.60
2017-10-19T15:33:32.826Z,3.37
2017-10-19T15:36:06.166Z,4.77
2017-10-19T15:38:38.999Z,4.20
2017-10-19T15:41:11.464Z,3.43
2017-10-19T15:43:44.759Z,4.80
2017-10-19T15:46:18.445Z,3.37
2017-10-19T15:48:51.236Z,3.37
2017-10-19T15:51:24.599Z,3.10
2017-10-19T15:53:57.361Z,2.40
2017-10-19T15:56:30.102Z,2.60
2017-10-19T15:59:03.539Z,3.70
2017-10-19T16:01:36.068Z,2.90
2017-10-19T16:04:15.770Z,2.60
2017-10-19T16:06:49.018Z,3.00
2017-10-19T16:09:22.144Z,2.33
2017-10-19T16:11:54.987Z,2.67
2017-10-19T16:14:29.160Z,4.23
2017-10-19T16:17:02.405Z,3.20
2017-10-19T16:19:35.184Z,2.83
2017-10-19T16:22:07.962Z,2.80
2017-10-19T16:24:40.739Z,3.60
2017-10-19T16:27:14.764Z,3.27
2017-10-19T16:29:47.555Z,2.87
2017-10-19T16:32:20.129Z,3.83
2017-10-19T16:34:53.438Z,7.30
2017-10-19T16:37:26.123Z,9.03
2017-10-19T16:39:58.727Z,4.97
2017-10-19T16:42:31.983Z,7.70
2017-10-19T16:45:05.564Z,4.93
2017-10-19T16:47:38.488Z,4.83
2017-10-19T16:50:11.112Z,5.87
2017-10-19T16:52:43.629Z,6.53
2017-10-19T16:55:16.169Z,5.47
2017-10-19T16:57:48.765Z,5.30
2017-10-19T17:00:21.494Z,3.90
2017-10-19T17:02:54.149Z,3.83
2017-10-19T17:05:26.761Z,4.10
2017-10-19T17:08:00.215Z,5.27
2017-10-19T17:10:34.027Z,5.37
2017-10-19T17:13:06.628Z,6.00
2017-10-19T17:15:39.333Z,5.67
2017-10-19T17:18:12.556Z,6.90
2017-10-19T17:20:45.948Z,5.90
2017-10-19T17:23:18.526Z,6.97
2017-10-19T17:25:51.048Z,6.10
2017-10-19T17:28:23.910Z,7.50
2017-10-19T17:30:57.374Z,8.33
2017-10-19T17:33:31.398Z,8.90
2017-10-19T17:36:04.298Z,7.40
2017-10-19T17:38:37.280Z,9.33
2017-10-19T17:41:10.679Z,7.30
2017-10-19T17:43:44.951Z,8.87
2017-10-19T17:46:18.770Z,8.70
2017-10-19T17:48:52.198Z,8.40
2017-10-19T17:51:25.766Z,7.97
2017-10-19T17:53:59.659Z,7.97
2017-10-19T17:56:33.097Z,8.47
2017-10-19T17:59:06.712Z,6.40
2017-10-19T18:01:41.370Z,6.83
2017-10-19T18:04:14.675Z,7.93
2017-10-19T18:06:48.440Z,7.37
2017-10-19T18:09:22.495Z,6.73
2017-10-19T18:11:56.471Z,6.47
2017-10-19T18:14:30.539Z,5.97
2017-10-19T18:17:05.741Z,6.80
2017-10-19T18:19:41.139Z,5.90
2017-10-19T18:22:15.250Z,7.07
2017-10-19T18:24:49.610Z,7.13
2017-10-19T18:27:24.641Z,7.30
2017-10-19T18:29:58.885Z,6.10
2017-10-19T18:32:33.095Z,5.90
2017-10-19T18:35:07.341Z,6.97
2017-10-19T18:37:41.851Z,7.80
2017-10-19T18:40:15.883Z,7.80
2017-10-19T18:42:50.251Z,7.07
2017-10-19T18:45:25.158Z,6.87
2017-10-19T18:47:59.612Z,7.97
2017-10-19T18:50:34.156Z,6.63
2017-10-19T18:53:08.485Z,7.67
2017-10-19T18:55:43.699Z,7.53
2017-10-19T18:58:18.697Z,7.33
2017-10-19T19:00:54.115Z,7.63
2017-10-19T19:03:29.794Z,9.07
2017-10-19T19:06:04.459Z,11.20
2017-10-19T19:08:39.843Z,10.40
2017-10-19T19:11:14.778Z,8.83
2017-10-19T19:13:49.764Z,10.30
2017-10-19T19:16:24.264Z,11.00
2017-10-19T19:18:59.841Z,9.13
2017-10-19T19:21:34.850Z,10.20
2017-10-19T19:24:11.151Z,10.00
2017-10-19T19:26:45.779Z,9.40
2017-10-19T19:29:21.547Z,9.00
2017-10-19T19:31:55.775Z,9.50
2017-10-19T19:34:31.402Z,8.93
2017-10-19T19:37:06.493Z,8.57
2017-10-19T19:39:40.981Z,8.73
2017-10-19T19:42:16.354Z,7.43
2017-10-19T19:44:51.468Z,11.70
2017-10-19T19:47:25.796Z,8.40
2017-10-19T19:50:02.168Z,8.90
2017-10-19T19:52:37.005Z,8.23
2017-10-19T19:55:11.912Z,9.10
2017-10-19T19:57:46.417Z,9.30
2017-10-19T20:00:21.281Z,7.47
2017-10-19T20:02:56.503Z,9.10
2017-10-19T20:05:32.308Z,8.37
2017-10-19T20:08:08.001Z,9.47
2017-10-19T20:10:42.889Z,8.30
2017-10-19T20:13:17.671Z,8.03
2017-10-19T20:15:52.842Z,8.90
2017-10-19T20:18:27.678Z,7.60
2017-10-19T20:21:02.434Z,6.70
2017-10-19T20:23:38.021Z,8.60
2017-10-19T20:26:13.744Z,7.20
2017-10-19T20:28:50.195Z,8.27
2017-10-19T20:31:24.379Z,8.50
2017-10-19T20:33:59.158Z,7.60
2017-10-19T20:36:34.941Z,9.00
2017-10-19T20:39:09.587Z,7.63
2017-10-19T20:41:45.071Z,7.83
2017-10-19T20:44:18.931Z,9.10
2017-10-19T20:46:53.558Z,9.07
2017-10-19T20:49:27.899Z,8.07
2017-10-19T20:52:02.061Z,9.23
2017-10-19T20:54:36.952Z,7.50
2017-10-19T20:57:11.681Z,7.93
2017-10-19T20:59:45.589Z,8.70
2017-10-19T21:02:18.476Z,9.50
2017-10-19T21:04:51.826Z,8.90
2017-10-19T21:07:25.077Z,7.93
2017-10-19T21:09:59.307Z,9.10
2017-10-19T21:12:33.800Z,9.17
2017-10-19T21:15:07.103Z,9.80
2017-10-19T21:17:40.122Z,10.20
2017-10-19T21:20:12.771Z,9.50
2017-10-19T21:22:45.503Z,9.83
2017-10-19T21:25:18.188Z,9.20
2017-10-19T21:27:52.063Z,10.80
2017-10-19T21:30:25.230Z,9.50
2017-10-19T21:32:57.619Z,9.20
2017-10-19T21:35:30.492Z,10.80
2017-10-19T21:38:03.082Z,11.10
2017-10-19T21:40:35.810Z,11.00
2017-10-19T21:43:08.508Z,9.27
2017-10-19T21:45:41.695Z,11.60
2017-10-19T21:48:14.917Z,10.77
2017-10-19T21:50:47.698Z,9.57
2017-10-19T21:53:20.483Z,7.43
2017-10-19T21:55:53.017Z,9.20
2017-10-19T21:58:25.810Z,11.03
2017-10-19T22:00:59.086Z,10.13
2017-10-19T22:03:32.859Z,10.80
2017-10-19T22:06:05.560Z,10.33
2017-10-19T22:08:38.334Z,11.80
2017-10-19T22:11:11.041Z,10.50
2017-10-19T22:13:43.654Z,10.73
2017-10-19T22:16:16.377Z,9.83
2017-10-19T22:18:49.244Z,9.43
2017-10-19T22:21:22.479Z,10.00
2017-10-19T22:23:54.946Z,11.50
2017-10-19T22:26:28.373Z,11.20
2017-10-19T22:29:01.161Z,11.10
2017-10-19T22:31:33.641Z,9.30
2017-10-19T22:34:06.974Z,11.60
2017-10-19T22:36:40.711Z,12.17
2017-10-19T22:39:13.861Z,10.50
2017-10-19T22:41:47.162Z,10.87
2017-10-19T22:44:21.369Z,10.70
2017-10-19T22:46:54.432Z,10.03
2017-10-19T22:49:27.886Z,10.07
2017-10-19T22:52:01.821Z,9.17
2017-10-19T22:54:34.773Z,10.90
2017-10-19T22:57:07.264Z,9.57
2017-10-19T22:59:40.031Z,11.10
2017-10-19T23:02:12.957Z,9.47
2017-10-19T23:04:45.619Z,9.60
2017-10-19T23:07:18.371Z,10.43
2017-10-19T23:09:51.499Z,9.03
2017-10-19T23:12:24.880Z,10.60
2017-10-19T23:14:57.501Z,10.83
2017-10-19T23:17:30.192Z,12.57
2017-10-19T23:20:02.701Z,9.90
2017-10-19T23:22:35.179Z,11.10
2017-10-19T23:25:07.777Z,10.07
2017-10-19T23:27:40.526Z,10.20
2017-10-19T23:30:13.198Z,13.33
2017-10-19T23:32:45.998Z,9.47
2017-10-19T23:35:18.654Z,11.20
2017-10-19T23:37:51.143Z,12.57
2017-10-19T23:40:25.038Z,12.63
2017-10-19T23:42:57.774Z,12.90
2017-10-19T23:45:31.008Z,9.83
2017-10-19T23:48:03.802Z,12.97
2017-10-19T23:50:36.199Z,11.50
2017-10-19T23:53:09.472Z,11.77
2017-10-19T23:55:42.346Z,12.50
2017-10-19T23:58:15.066Z,14.27
